Terminal Aerodrome Forecast
Issued by NWS

Home | Current Version | Previous Version | Text Only | Print | Product List | Glossary On
Versions: 1 2 3 4 5 6 7 8 9 10 11 12 13 14 15
000
FTUS44 KJAN 261700
TAFHKS
TAF
KHKS 261720Z 2618/2718 12008KT P6SM FEW040 BKN120
     FM270000 13008KT P6SM OVC050
     FM270600 13008KT P6SM -RA OVC035
     FM271200 14008KT 4SM -RA BR OVC015=

USA.gov is the U.S. government's official web portal to all federal, state and local government web resources and services.